createdAt,value
2019-05-19T00:00:25.543Z,15.10
2019-05-19T00:02:53.314Z,15.10
2019-05-19T00:05:21.632Z,15.20
2019-05-19T00:07:50.006Z,15.10
2019-05-19T00:10:18.404Z,15.10
2019-05-19T00:12:46.783Z,15.20
2019-05-19T00:15:15.236Z,15.20
2019-05-19T00:17:43.612Z,15.20
2019-05-19T00:20:12.004Z,15.20
2019-05-19T00:22:40.451Z,15.10
2019-05-19T00:25:08.856Z,14.90
2019-05-19T00:27:37.226Z,14.70
2019-05-19T00:30:08.657Z,14.60
2019-05-19T00:32:37.038Z,14.50
2019-05-19T00:35:06.535Z,14.50
2019-05-19T00:37:35.112Z,14.40
2019-05-19T00:40:04.151Z,14.40
2019-05-19T00:42:32.599Z,14.50
2019-05-19T00:45:00.995Z,14.60
2019-05-19T00:47:29.381Z,14.70
2019-05-19T00:49:57.763Z,14.80
2019-05-19T00:52:26.138Z,14.80
2019-05-19T00:54:54.554Z,14.70
2019-05-19T00:57:22.923Z,14.70
2019-05-19T00:59:51.323Z,14.50
2019-05-19T01:02:19.729Z,14.40
2019-05-19T01:04:48.147Z,14.50
2019-05-19T01:07:16.519Z,14.60
2019-05-19T01:09:44.902Z,14.50
2019-05-19T01:12:13.201Z,14.60
2019-05-19T01:14:41.601Z,14.70
2019-05-19T01:17:10.993Z,14.70
2019-05-19T01:19:39.372Z,14.70
2019-05-19T01:22:07.804Z,14.50
2019-05-19T01:24:36.216Z,14.50
2019-05-19T01:27:04.643Z,14.10
2019-05-19T01:29:33.035Z,13.70
2019-05-19T01:32:01.412Z,13.60
2019-05-19T01:34:29.802Z,13.70
2019-05-19T01:36:58.176Z,13.80
2019-05-19T01:39:26.609Z,13.90
2019-05-19T01:41:54.974Z,14.00
2019-05-19T01:44:23.363Z,13.90
2019-05-19T01:46:51.740Z,14.00
2019-05-19T01:49:20.167Z,14.10
2019-05-19T01:51:48.555Z,14.10
2019-05-19T01:54:16.932Z,14.10
2019-05-19T01:56:45.427Z,14.10
2019-05-19T01:59:13.879Z,14.20
2019-05-19T02:01:42.272Z,14.20
2019-05-19T02:04:10.643Z,14.10
2019-05-19T02:06:39.031Z,14.20
2019-05-19T02:09:07.491Z,14.00
2019-05-19T02:11:35.892Z,13.90
2019-05-19T02:14:04.632Z,13.90
2019-05-19T02:16:33.075Z,13.60
2019-05-19T02:19:01.452Z,13.40
2019-05-19T02:21:29.844Z,13.50
2019-05-19T02:23:58.215Z,13.50
2019-05-19T02:26:26.600Z,13.70
2019-05-19T02:28:54.967Z,13.90
2019-05-19T02:31:23.355Z,13.90
2019-05-19T02:33:51.758Z,13.90
2019-05-19T02:36:20.190Z,13.70
2019-05-19T02:38:48.563Z,13.80
2019-05-19T02:41:17.514Z,13.90
2019-05-19T02:43:46.466Z,13.90
2019-05-19T02:46:14.855Z,13.90
2019-05-19T02:48:43.231Z,13.90
2019-05-19T02:51:11.799Z,13.90
2019-05-19T02:53:40.429Z,14.00
2019-05-19T02:56:08.821Z,14.10
2019-05-19T02:58:37.208Z,14.10
2019-05-19T03:01:05.583Z,14.10
2019-05-19T03:03:34.021Z,14.20
2019-05-19T03:06:02.389Z,14.20
2019-05-19T03:08:30.756Z,14.20
2019-05-19T03:10:59.151Z,14.20
2019-05-19T03:13:27.523Z,14.10
2019-05-19T03:15:55.919Z,14.10
2019-05-19T03:18:24.303Z,14.10
2019-05-19T03:21:09.431Z,14.10
2019-05-19T03:23:22.745Z,14.10
2019-05-19T03:25:51.116Z,14.10
2019-05-19T03:28:19.601Z,14.00
2019-05-19T03:30:58.125Z,13.70
2019-05-19T03:33:36.940Z,13.50
2019-05-19T03:36:05.310Z,13.50
2019-05-19T03:38:33.713Z,13.60
2019-05-19T03:41:02.085Z,13.70
2019-05-19T03:43:30.476Z,13.50
2019-05-19T03:45:58.940Z,13.70
2019-05-19T03:48:27.332Z,13.70
2019-05-19T03:50:55.716Z,13.80
2019-05-19T03:53:24.122Z,13.80
2019-05-19T03:55:52.479Z,13.80
2019-05-19T03:58:20.873Z,13.80
2019-05-19T04:00:49.268Z,13.80
2019-05-19T04:03:17.718Z,13.90
2019-05-19T04:05:46.093Z,13.90
2019-05-19T04:08:14.485Z,13.90
2019-05-19T04:10:42.844Z,13.80
2019-05-19T04:13:11.348Z,13.80
2019-05-19T04:15:39.721Z,13.80
2019-05-19T04:18:08.200Z,13.80
2019-05-19T04:20:36.600Z,13.80
2019-05-19T04:23:04.972Z,13.80
2019-05-19T04:25:33.352Z,13.90
2019-05-19T04:28:01.742Z,13.80
2019-05-19T04:30:30.132Z,13.70
2019-05-19T04:32:58.519Z,13.60
2019-05-19T04:35:26.919Z,13.70
2019-05-19T04:37:55.325Z,13.70
2019-05-19T04:40:23.698Z,13.80
2019-05-19T04:42:52.088Z,14.00
2019-05-19T04:45:20.461Z,14.10
2019-05-19T04:47:51.637Z,14.10
2019-05-19T04:50:20.016Z,14.20
2019-05-19T04:52:48.413Z,14.30
2019-05-19T04:55:16.809Z,14.50
2019-05-19T04:57:45.191Z,14.50
2019-05-19T05:00:13.569Z,14.60
2019-05-19T05:02:41.960Z,14.70
2019-05-19T05:05:10.703Z,14.80
2019-05-19T05:07:39.100Z,14.90
2019-05-19T05:10:07.474Z,15.10
2019-05-19T05:12:35.873Z,15.30
2019-05-19T05:15:05.678Z,15.50
2019-05-19T05:17:34.083Z,15.80
2019-05-19T05:20:02.624Z,16.10
2019-05-19T05:22:31.024Z,16.40
2019-05-19T05:24:59.407Z,16.60
2019-05-19T05:27:27.835Z,16.70
2019-05-19T05:29:56.209Z,16.70
2019-05-19T05:32:24.599Z,16.80
2019-05-19T05:34:52.984Z,16.80
2019-05-19T05:37:21.399Z,17.00
2019-05-19T05:39:49.760Z,17.20
2019-05-19T05:42:18.149Z,17.40
2019-05-19T05:44:46.531Z,17.40
2019-05-19T05:47:14.907Z,17.60
2019-05-19T05:49:43.313Z,17.90
2019-05-19T05:52:11.704Z,18.20
2019-05-19T05:54:40.102Z,18.30
2019-05-19T05:57:08.477Z,18.30
2019-05-19T05:59:36.876Z,18.30
2019-05-19T06:02:05.265Z,18.30
2019-05-19T06:04:33.668Z,18.40
2019-05-19T06:07:02.063Z,18.50
2019-05-19T06:09:30.477Z,18.50
2019-05-19T06:11:58.861Z,18.60
2019-05-19T06:14:27.277Z,18.60
2019-05-19T06:16:55.677Z,18.60
2019-05-19T06:19:24.072Z,18.70
2019-05-19T06:21:52.523Z,18.60
2019-05-19T06:24:20.923Z,18.60
2019-05-19T06:26:49.290Z,18.50
2019-05-19T06:29:17.690Z,18.40
2019-05-19T06:31:46.060Z,18.40
2019-05-19T06:34:15.428Z,18.30
2019-05-19T06:36:43.813Z,18.10
2019-05-19T06:39:12.270Z,17.90
2019-05-19T06:41:40.733Z,17.80
2019-05-19T06:44:09.151Z,17.70
2019-05-19T06:46:40.640Z,17.70
2019-05-19T06:49:09.046Z,17.70
2019-05-19T06:51:37.421Z,17.60
2019-05-19T06:54:30.767Z,17.60
2019-05-19T06:57:00.224Z,17.70
2019-05-19T06:59:30.246Z,17.70
2019-05-19T07:01:58.620Z,17.80
2019-05-19T07:04:29.918Z,17.80
2019-05-19T07:06:58.436Z,17.80
2019-05-19T07:09:26.909Z,17.90
2019-05-19T07:12:03.169Z,18.00
2019-05-19T07:14:43.454Z,18.10
2019-05-19T07:17:11.821Z,18.10
2019-05-19T07:19:49.958Z,18.30
2019-05-19T07:22:41.360Z,18.40
2019-05-19T07:25:09.755Z,18.40
2019-05-19T07:27:38.147Z,18.50
2019-05-19T07:30:07.471Z,18.60
2019-05-19T07:32:35.846Z,18.50
2019-05-19T07:35:07.906Z,18.50
2019-05-19T07:37:36.278Z,18.50
2019-05-19T07:40:05.514Z,18.40
2019-05-19T07:42:33.894Z,18.40
2019-05-19T07:45:02.279Z,18.50
2019-05-19T07:47:30.668Z,18.50
2019-05-19T07:49:59.065Z,18.60
2019-05-19T07:52:27.446Z,18.60
2019-05-19T07:54:55.847Z,18.60
2019-05-19T07:57:24.217Z,18.70
2019-05-19T07:59:52.617Z,18.80
2019-05-19T08:02:21.040Z,18.80
2019-05-19T08:04:49.423Z,18.80
2019-05-19T08:07:17.814Z,18.80
2019-05-19T08:09:46.209Z,18.70
2019-05-19T08:12:16.622Z,18.70
2019-05-19T08:14:46.640Z,18.80
2019-05-19T08:17:15.051Z,18.80
2019-05-19T08:19:43.438Z,18.90
2019-05-19T08:22:11.823Z,18.90
2019-05-19T08:24:40.139Z,18.90
2019-05-19T08:27:08.548Z,19.00
2019-05-19T08:29:36.922Z,19.00
2019-05-19T08:32:05.329Z,19.00
2019-05-19T08:34:33.708Z,19.00
2019-05-19T08:37:02.198Z,18.90
2019-05-19T08:39:30.732Z,18.90
2019-05-19T08:41:59.126Z,18.90
2019-05-19T08:44:27.516Z,19.00
2019-05-19T08:46:55.940Z,19.20
2019-05-19T08:49:24.624Z,19.30
2019-05-19T08:51:53.576Z,19.50
2019-05-19T08:54:22.127Z,19.70
2019-05-19T08:56:50.930Z,19.90
2019-05-19T08:59:19.317Z,20.00
2019-05-19T09:01:49.050Z,20.30
2019-05-19T09:04:17.479Z,20.50
2019-05-19T09:06:45.893Z,20.70
2019-05-19T09:09:14.273Z,20.80
2019-05-19T09:11:42.677Z,20.90
2019-05-19T09:14:11.056Z,20.90
2019-05-19T09:16:39.466Z,20.90
2019-05-19T09:19:07.827Z,20.80
2019-05-19T09:21:36.585Z,20.90
2019-05-19T09:24:05.528Z,21.20
2019-05-19T09:26:33.879Z,21.10
2019-05-19T09:29:02.310Z,21.30
2019-05-19T09:31:30.710Z,21.50
2019-05-19T09:33:59.083Z,21.80
2019-05-19T09:36:27.479Z,22.00
2019-05-19T09:38:55.844Z,22.00
2019-05-19T09:41:24.860Z,21.80
2019-05-19T09:43:53.264Z,21.90
2019-05-19T09:46:21.672Z,21.80
2019-05-19T09:48:51.738Z,22.10
2019-05-19T09:51:20.089Z,22.40
2019-05-19T09:53:48.470Z,22.50
2019-05-19T09:56:16.859Z,22.50
2019-05-19T09:58:45.232Z,22.30
2019-05-19T10:01:13.628Z,22.10
2019-05-19T10:03:42.008Z,22.10
2019-05-19T10:06:10.407Z,22.10
2019-05-19T10:08:44.883Z,21.60
2019-05-19T10:11:35.979Z,21.40
2019-05-19T10:14:04.337Z,21.80
2019-05-19T10:16:32.735Z,22.10
2019-05-19T10:19:01.120Z,22.30
2019-05-19T10:21:29.516Z,22.40
2019-05-19T10:23:57.888Z,22.40
2019-05-19T10:26:27.063Z,22.50
2019-05-19T10:28:55.443Z,22.70
2019-05-19T10:31:23.910Z,23.00
2019-05-19T10:33:52.641Z,23.30
2019-05-19T10:36:20.996Z,23.40
2019-05-19T10:38:49.387Z,23.30
2019-05-19T10:41:17.767Z,23.40
2019-05-19T10:43:47.851Z,23.50
2019-05-19T10:46:16.596Z,23.80
2019-05-19T10:48:44.976Z,24.10
2019-05-19T10:51:13.356Z,24.30
2019-05-19T10:53:41.738Z,24.40
2019-05-19T10:56:10.120Z,24.50
2019-05-19T10:58:38.540Z,24.60
2019-05-19T11:01:06.897Z,24.70
2019-05-19T11:03:35.310Z,24.90
2019-05-19T11:06:03.702Z,25.00
2019-05-19T11:08:32.088Z,25.20
2019-05-19T11:11:00.450Z,25.40
2019-05-19T11:13:28.834Z,25.60
2019-05-19T11:15:57.209Z,25.60
2019-05-19T11:18:25.595Z,25.40
2019-05-19T11:20:53.980Z,26.00
2019-05-19T11:23:22.381Z,26.60
2019-05-19T11:25:51.837Z,26.70
2019-05-19T11:28:20.488Z,26.60
2019-05-19T11:30:48.903Z,26.40
2019-05-19T11:33:17.295Z,25.90
2019-05-19T11:35:45.672Z,25.80
2019-05-19T11:38:14.119Z,25.80
2019-05-19T11:40:42.471Z,25.80
2019-05-19T11:43:10.913Z,25.60
2019-05-19T11:45:39.296Z,25.30
2019-05-19T11:48:07.685Z,25.10
2019-05-19T11:50:36.088Z,25.10
2019-05-19T11:53:04.468Z,25.20
2019-05-19T11:55:32.835Z,25.10
2019-05-19T11:58:01.236Z,25.20
2019-05-19T12:00:29.601Z,25.20
2019-05-19T12:02:57.991Z,25.00
2019-05-19T12:05:26.404Z,24.90
2019-05-19T12:07:54.792Z,25.00
2019-05-19T12:10:23.171Z,25.10
2019-05-19T12:12:51.578Z,25.20
2019-05-19T12:15:19.950Z,25.10
2019-05-19T12:17:48.324Z,25.00
2019-05-19T12:20:16.715Z,24.80
2019-05-19T12:22:45.084Z,24.50
2019-05-19T12:25:13.505Z,24.60
2019-05-19T12:27:41.867Z,24.80
2019-05-19T12:30:10.404Z,24.90
2019-05-19T12:32:38.777Z,24.90
2019-05-19T12:35:07.249Z,24.80
2019-05-19T12:37:35.618Z,24.70
2019-05-19T12:40:11.082Z,24.70
2019-05-19T12:42:39.444Z,24.80
2019-05-19T12:45:08.543Z,25.00
2019-05-19T12:47:36.872Z,25.10
2019-05-19T12:50:08.247Z,25.10
2019-05-19T12:52:36.579Z,25.10
2019-05-19T12:55:05.674Z,25.10
2019-05-19T12:57:34.069Z,25.00
2019-05-19T13:00:02.578Z,24.90
2019-05-19T13:02:30.929Z,25.00
2019-05-19T13:05:04.732Z,24.90
2019-05-19T13:07:29.431Z,25.00
2019-05-19T13:09:57.907Z,25.00
2019-05-19T13:12:26.357Z,25.00
2019-05-19T13:14:54.767Z,25.00
2019-05-19T13:17:23.143Z,25.10
2019-05-19T13:19:51.631Z,25.00
2019-05-19T13:22:19.999Z,25.00
2019-05-19T13:24:48.391Z,25.20
2019-05-19T13:27:16.768Z,25.20
2019-05-19T13:29:45.464Z,25.20
2019-05-19T13:32:13.842Z,25.20
2019-05-19T13:34:42.246Z,25.00
2019-05-19T13:37:10.687Z,24.80
2019-05-19T13:39:39.088Z,24.80
2019-05-19T13:42:07.459Z,25.00
2019-05-19T13:44:35.885Z,25.10
2019-05-19T13:47:04.243Z,25.20
2019-05-19T13:49:32.636Z,25.20
2019-05-19T13:52:01.017Z,25.00
2019-05-19T13:54:29.428Z,25.10
2019-05-19T13:57:11.334Z,25.20
2019-05-19T13:59:27.847Z,25.40
2019-05-19T14:01:56.287Z,25.50
2019-05-19T14:04:24.695Z,25.60
2019-05-19T14:06:53.052Z,25.70
2019-05-19T14:09:21.453Z,25.70
2019-05-19T14:11:49.851Z,25.60
2019-05-19T14:14:18.661Z,25.20
2019-05-19T14:16:47.171Z,24.90
2019-05-19T14:19:15.556Z,24.90
2019-05-19T14:21:44.033Z,24.90
2019-05-19T14:24:12.842Z,25.00
2019-05-19T14:26:41.922Z,25.00
2019-05-19T14:29:10.362Z,25.00
2019-05-19T14:31:38.910Z,25.00
2019-05-19T14:34:07.671Z,25.00
2019-05-19T14:36:36.284Z,25.00
2019-05-19T14:39:06.260Z,25.10
2019-05-19T14:41:36.343Z,25.20
2019-05-19T14:44:05.168Z,25.30
2019-05-19T14:46:33.991Z,25.30
2019-05-19T14:49:02.410Z,25.40
2019-05-19T14:51:30.907Z,25.40
2019-05-19T14:54:00.063Z,25.50
2019-05-19T14:56:28.465Z,25.60
2019-05-19T14:58:56.831Z,25.70
2019-05-19T15:01:25.290Z,25.70
2019-05-19T15:03:53.847Z,25.70
2019-05-19T15:06:22.845Z,25.60
2019-05-19T15:08:53.985Z,25.60
2019-05-19T15:11:23.272Z,25.60
2019-05-19T15:13:56.889Z,25.60
2019-05-19T15:16:25.394Z,25.40
2019-05-19T15:18:53.844Z,25.30
2019-05-19T15:21:22.242Z,25.20
2019-05-19T15:23:50.610Z,25.10
2019-05-19T15:26:19.009Z,25.00
2019-05-19T15:28:47.377Z,25.00
2019-05-19T15:31:15.786Z,25.00
2019-05-19T15:33:44.376Z,25.00
2019-05-19T15:36:12.771Z,24.90
2019-05-19T15:38:41.140Z,24.70
2019-05-19T15:41:09.601Z,24.60
2019-05-19T15:43:37.967Z,24.50
2019-05-19T15:46:06.354Z,24.50
2019-05-19T15:48:34.747Z,24.60
2019-05-19T15:51:03.117Z,24.50
2019-05-19T15:53:31.504Z,24.40
2019-05-19T15:55:59.894Z,24.30
2019-05-19T15:58:28.294Z,24.10
2019-05-19T16:00:56.666Z,23.90
2019-05-19T16:03:25.036Z,23.80
2019-05-19T16:05:53.440Z,23.60
2019-05-19T16:08:22.404Z,23.50
2019-05-19T16:10:51.307Z,23.30
2019-05-19T16:13:21.996Z,23.30
2019-05-19T16:15:49.751Z,23.30
2019-05-19T16:18:18.156Z,23.10
2019-05-19T16:20:46.528Z,23.10
2019-05-19T16:23:14.927Z,23.10
2019-05-19T16:25:43.286Z,23.00
2019-05-19T16:28:11.676Z,23.00
2019-05-19T16:30:40.060Z,22.90
2019-05-19T16:33:08.465Z,22.80
2019-05-19T16:35:36.868Z,22.80
2019-05-19T16:38:05.387Z,22.70
2019-05-19T16:40:33.767Z,22.70
2019-05-19T16:43:02.559Z,22.50
2019-05-19T16:45:31.154Z,22.50
2019-05-19T16:47:59.499Z,22.40
2019-05-19T16:50:27.895Z,22.30
2019-05-19T16:52:58.025Z,22.20
2019-05-19T16:55:28.354Z,22.00
2019-05-19T16:57:56.962Z,22.00
2019-05-19T17:00:26.317Z,21.90
2019-05-19T17:02:55.090Z,22.00
2019-05-19T17:05:23.515Z,21.90
2019-05-19T17:07:51.985Z,21.90
2019-05-19T17:10:20.351Z,21.90
2019-05-19T17:12:48.931Z,21.80
2019-05-19T17:15:17.295Z,21.70
2019-05-19T17:17:45.691Z,21.60
2019-05-19T17:20:14.150Z,21.40
2019-05-19T17:22:42.528Z,21.10
2019-05-19T17:25:10.997Z,20.90
2019-05-19T17:27:39.382Z,20.90
2019-05-19T17:30:09.722Z,20.70
2019-05-19T17:32:38.190Z,20.60
2019-05-19T17:35:06.903Z,20.60
2019-05-19T17:37:35.490Z,20.80
2019-05-19T17:40:04.427Z,20.80
2019-05-19T17:42:32.998Z,20.90
2019-05-19T17:45:01.533Z,20.90
2019-05-19T17:47:29.909Z,20.90
2019-05-19T17:49:58.266Z,21.00
2019-05-19T17:52:26.793Z,20.90
2019-05-19T17:54:55.392Z,20.80
2019-05-19T17:57:23.889Z,20.90
2019-05-19T17:59:52.307Z,20.80
2019-05-19T18:02:20.728Z,20.70
2019-05-19T18:04:49.158Z,20.60
2019-05-19T18:07:17.507Z,20.50
2019-05-19T18:09:45.887Z,20.50
2019-05-19T18:12:14.305Z,20.50
2019-05-19T18:14:42.672Z,20.40
2019-05-19T18:17:11.048Z,20.40
2019-05-19T18:19:39.444Z,20.50
2019-05-19T18:22:07.877Z,20.40
2019-05-19T18:24:36.227Z,20.50
2019-05-19T18:27:04.711Z,20.50
2019-05-19T18:29:33.679Z,20.50
2019-05-19T18:32:02.046Z,20.40
2019-05-19T18:34:30.497Z,20.30
2019-05-19T18:36:59.059Z,20.30
2019-05-19T18:39:27.457Z,20.20
2019-05-19T18:41:56.261Z,20.10
2019-05-19T18:44:24.656Z,20.10
2019-05-19T18:46:53.037Z,20.10
2019-05-19T18:49:21.430Z,20.10
2019-05-19T18:51:49.806Z,20.10
2019-05-19T18:54:18.203Z,20.10
2019-05-19T18:56:46.587Z,20.10
2019-05-19T18:59:14.985Z,20.10
2019-05-19T19:01:43.354Z,20.00
2019-05-19T19:04:12.164Z,19.90
2019-05-19T19:06:40.557Z,19.90
2019-05-19T19:09:08.947Z,19.80
2019-05-19T19:11:37.341Z,19.90
2019-05-19T19:14:05.751Z,19.90
2019-05-19T19:16:34.123Z,19.70
2019-05-19T19:19:02.520Z,19.70
2019-05-19T19:21:31.047Z,19.70
2019-05-19T19:23:59.431Z,19.70
2019-05-19T19:26:27.862Z,19.60
2019-05-19T19:28:56.332Z,19.70
2019-05-19T19:31:24.711Z,19.50
2019-05-19T19:33:53.104Z,19.50
2019-05-19T19:36:21.496Z,19.50
2019-05-19T19:38:50.009Z,19.60
2019-05-19T19:41:18.614Z,19.60
2019-05-19T19:43:47.040Z,19.60
2019-05-19T19:46:15.427Z,19.50
2019-05-19T19:48:43.815Z,19.40
2019-05-19T19:51:12.215Z,19.40
2019-05-19T19:53:40.599Z,19.50
2019-05-19T19:56:08.983Z,19.40
2019-05-19T19:58:37.364Z,19.40
2019-05-19T20:01:05.768Z,19.40
2019-05-19T20:03:39.421Z,19.40
2019-05-19T20:06:04.228Z,19.20
2019-05-19T20:08:32.609Z,19.10
2019-05-19T20:11:00.991Z,19.00
2019-05-19T20:13:29.363Z,18.90
2019-05-19T20:15:57.766Z,18.90
2019-05-19T20:18:26.205Z,18.60
2019-05-19T20:20:54.660Z,18.70
2019-05-19T20:23:23.099Z,18.60
2019-05-19T20:25:51.885Z,18.50
2019-05-19T20:28:20.264Z,18.60
2019-05-19T20:30:49.599Z,18.70
2019-05-19T20:33:18.613Z,18.60
2019-05-19T20:35:47.465Z,18.60
2019-05-19T20:38:16.189Z,18.20
2019-05-19T20:40:44.692Z,18.10
2019-05-19T20:43:13.060Z,18.10
2019-05-19T20:45:41.460Z,18.00
2019-05-19T20:48:12.820Z,18.00
2019-05-19T20:50:41.402Z,18.00
2019-05-19T20:53:10.156Z,18.10
2019-05-19T20:55:38.647Z,18.20
2019-05-19T20:58:07.103Z,18.30
2019-05-19T21:00:49.437Z,18.10
2019-05-19T21:03:05.523Z,18.00
2019-05-19T21:05:35.179Z,17.60
2019-05-19T21:08:03.546Z,17.20
2019-05-19T21:10:31.935Z,16.90
2019-05-19T21:13:00.320Z,16.90
2019-05-19T21:15:28.857Z,16.80
2019-05-19T21:17:57.355Z,16.80
2019-05-19T21:20:25.752Z,16.80
2019-05-19T21:22:54.139Z,16.90
2019-05-19T21:25:22.536Z,16.90
2019-05-19T21:27:51.051Z,17.00
2019-05-19T21:30:19.784Z,17.20
2019-05-19T21:32:48.197Z,17.30
2019-05-19T21:35:16.580Z,17.40
2019-05-19T21:37:44.956Z,17.30
2019-05-19T21:40:13.351Z,17.00
2019-05-19T21:42:41.741Z,16.80
2019-05-19T21:45:10.130Z,16.70
2019-05-19T21:47:38.507Z,16.60
2019-05-19T21:50:07.385Z,16.40
2019-05-19T21:52:35.772Z,16.20
2019-05-19T21:55:06.301Z,16.20
2019-05-19T21:57:34.742Z,16.20
2019-05-19T22:00:03.294Z,16.20
2019-05-19T22:02:31.733Z,16.30
2019-05-19T22:05:01.646Z,16.40
2019-05-19T22:07:48.043Z,16.20
2019-05-19T22:10:16.504Z,16.20
2019-05-19T22:12:44.882Z,16.10
2019-05-19T22:15:13.255Z,16.00
2019-05-19T22:17:41.661Z,16.00
2019-05-19T22:20:10.023Z,16.20
2019-05-19T22:22:38.417Z,16.20
2019-05-19T22:25:07.356Z,16.30
2019-05-19T22:27:35.749Z,16.40
2019-05-19T22:30:05.868Z,16.50
2019-05-19T22:32:34.260Z,16.50
2019-05-19T22:35:02.650Z,16.50
2019-05-19T22:37:31.036Z,16.50
2019-05-19T22:39:59.418Z,16.60
2019-05-19T22:42:27.860Z,16.50
2019-05-19T22:44:56.236Z,16.60
2019-05-19T22:47:24.627Z,16.50
2019-05-19T22:49:52.997Z,16.60
2019-05-19T22:52:21.379Z,16.60
2019-05-19T22:54:49.748Z,16.60
2019-05-19T22:57:18.263Z,16.60
2019-05-19T22:59:46.603Z,16.50
2019-05-19T23:02:15.007Z,16.50
2019-05-19T23:04:43.368Z,16.30
2019-05-19T23:07:11.753Z,16.20
2019-05-19T23:09:40.129Z,16.10
2019-05-19T23:12:08.523Z,16.00
2019-05-19T23:14:36.840Z,15.90
2019-05-19T23:17:05.295Z,15.70
2019-05-19T23:19:33.664Z,15.70
2019-05-19T23:22:02.116Z,15.80
2019-05-19T23:24:30.442Z,15.80
2019-05-19T23:26:58.843Z,15.90
2019-05-19T23:29:27.215Z,15.60
2019-05-19T23:32:06.681Z,15.60
2019-05-19T23:34:25.654Z,15.60
2019-05-19T23:36:54.035Z,15.80
2019-05-19T23:39:22.412Z,15.80
2019-05-19T23:41:50.808Z,15.80
2019-05-19T23:44:19.172Z,15.80
2019-05-19T23:46:47.564Z,15.80
2019-05-19T23:49:15.933Z,15.80
2019-05-19T23:51:44.405Z,15.80
2019-05-19T23:54:12.760Z,15.70
2019-05-19T23:56:41.139Z,15.70
2019-05-19T23:59:09.588Z,15.60
